Time;durP1;ratioP1;P1;durP2;ratioP2;P2;SDS_P1;SDS_P2;PMS_P1;PMS_P2;Temp;Humidity;BMP_temperature;BMP_pressure;BME280_temperature;BME280_humidity;BME280_pressure;Samples;Min_cycle;Max_cycle;Signal;HPM_P1;HPM_P2
2022/12/26 00:00:15;;;;;;;;;;;13.90;58.90;;;;;;5074521;28;20020;-66
2022/12/26 00:02:41;;;;;;;;;;;13.90;58.90;;;;;;5056721;28;19964;-66
2022/12/26 00:05:07;;;;;;;;;;;13.90;58.90;;;;;;5056853;28;19969;-66
2022/12/26 00:07:32;;;;;;;;;;;13.90;58.90;;;;;;5074563;28;19920;-66
2022/12/26 00:09:58;;;;;;;;;;;13.90;58.90;;;;;;5056486;28;19920;-66
2022/12/26 00:12:23;;;;;;;;;;;13.90;58.90;;;;;;5074630;28;19982;-66
2022/12/26 00:14:49;;;;;;;;;;;13.90;58.90;;;;;;5056781;28;20352;-66
2022/12/26 00:17:14;;;;;;;;;;;13.90;59.00;;;;;;5074229;28;20427;-74
2022/12/26 00:19:40;;;;;;;;;;;13.90;58.90;;;;;;5074354;28;19920;-66
2022/12/26 00:22:05;;;;;;;;;;;13.90;58.90;;;;;;5055991;28;20027;-66
2022/12/26 00:24:31;;;;;;;;;;;13.90;58.90;;;;;;5074152;28;19928;-73
2022/12/26 00:26:56;;;;;;;;;;;13.90;58.90;;;;;;5056078;28;19950;-66
2022/12/26 00:29:22;;;;;;;;;;;13.90;58.90;;;;;;5074173;28;19920;-66
2022/12/26 00:31:48;;;;;;;;;;;13.90;58.90;;;;;;5074187;28;19921;-66
2022/12/26 00:34:14;;;;;;;;;;;13.90;58.90;;;;;;5056418;28;20299;-66
2022/12/26 00:36:40;;;;;;;;;;;13.90;58.90;;;;;;5056023;28;19920;-66
2022/12/26 00:39:05;;;;;;;;;;;13.90;58.90;;;;;;5073953;28;19927;-73
2022/12/26 00:41:31;;;;;;;;;;;13.90;58.90;;;;;;5073651;28;19931;-66
2022/12/26 00:43:57;;;;;;;;;;;13.90;58.90;;;;;;5074023;28;19921;-66
2022/12/26 00:46:22;;;;;;;;;;;13.90;58.90;;;;;;5073805;28;19935;-66
2022/12/26 00:48:48;;;;;;;;;;;13.90;58.90;;;;;;5055677;28;19927;-66
2022/12/26 00:51:14;;;;;;;;;;;13.90;58.90;;;;;;5073828;28;19925;-66
2022/12/26 00:53:40;;;;;;;;;;;13.90;59.00;;;;;;5055654;28;19921;-66
2022/12/26 00:56:05;;;;;;;;;;;13.90;58.90;;;;;;5055628;28;19927;-66
2022/12/26 00:58:31;;;;;;;;;;;13.90;58.90;;;;;;5055876;28;19931;-66
2022/12/26 01:01:04;;;;;;;;;;;13.90;59.00;;;;;;5055619;28;20295;-66
2022/12/26 01:03:30;;;;;;;;;;;13.90;59.00;;;;;;5055731;28;19920;-66
2022/12/26 01:05:55;;;;;;;;;;;13.90;58.90;;;;;;5054607;28;19927;-66
2022/12/26 01:08:21;;;;;;;;;;;13.90;58.90;;;;;;5055340;28;19920;-66
2022/12/26 01:10:48;;;;;;;;;;;13.90;58.90;;;;;;5065978;28;19924;-66
2022/12/26 01:13:14;;;;;;;;;;;13.90;58.90;;;;;;5093223;28;19924;-66
2022/12/26 01:15:39;;;;;;;;;;;13.90;59.00;;;;;;5075134;28;19920;-74
2022/12/26 01:18:05;;;;;;;;;;;13.90;58.90;;;;;;5074739;28;19920;-66
2022/12/26 01:20:30;;;;;;;;;;;13.90;58.90;;;;;;5071668;28;19949;-74
2022/12/26 01:22:56;;;;;;;;;;;13.90;58.90;;;;;;5071826;28;19973;-66
2022/12/26 01:25:22;;;;;;;;;;;13.90;59.00;;;;;;5071593;28;20295;-73
2022/12/26 01:27:48;;;;;;;;;;;13.90;59.00;;;;;;5072560;28;20384;-73
2022/12/26 01:30:13;;;;;;;;;;;13.90;59.00;;;;;;5071941;28;20011;-66
2022/12/26 01:32:39;;;;;;;;;;;13.80;59.00;;;;;;5071579;28;19921;-74
2022/12/26 01:35:05;;;;;;;;;;;13.90;59.10;;;;;;5072584;28;19968;-66
2022/12/26 01:37:30;;;;;;;;;;;13.90;59.10;;;;;;5071739;28;19921;-66
2022/12/26 01:39:56;;;;;;;;;;;13.90;59.10;;;;;;5072928;28;19920;-73
2022/12/26 01:42:22;;;;;;;;;;;13.80;59.10;;;;;;5071562;28;19920;-66
2022/12/26 01:47:39;;;;;;;;;;;13.90;59.20;;;;;;5110095;27;19912;-63
2022/12/26 01:50:06;;;;;;;;;;;13.90;59.20;;;;;;5108849;28;19920;-71
2022/12/26 01:52:34;;;;;;;;;;;13.90;59.20;;;;;;5108898;28;19928;-63
2022/12/26 01:55:00;;;;;;;;;;;13.90;59.20;;;;;;5108547;28;19925;-65
2022/12/26 01:57:28;;;;;;;;;;;13.80;59.20;;;;;;5108750;28;19966;-63
2022/12/26 01:59:55;;;;;;;;;;;13.90;59.20;;;;;;5108969;28;19927;-63
2022/12/26 02:02:21;;;;;;;;;;;13.90;59.20;;;;;;5108546;28;19920;-63
2022/12/26 02:07:34;;;;;;;;;;;13.90;59.20;;;;;;5108429;28;19984;-63
2022/12/26 02:10:00;;;;;;;;;;;13.90;59.20;;;;;;5108065;28;19985;-63
2022/12/26 02:12:28;;;;;;;;;;;13.90;59.20;;;;;;5108351;28;20373;-63
2022/12/26 02:14:54;;;;;;;;;;;13.90;59.10;;;;;;5108526;28;19924;-63
2022/12/26 02:17:19;;;;;;;;;;;13.90;59.10;;;;;;5108807;28;20275;-71
2022/12/26 02:28:24;;;;;;;;;;;13.90;59.10;;;;;;5110068;27;20408;-64
2022/12/26 02:30:57;;;;;;;;;;;13.90;59.10;;;;;;5108486;28;20408;-71
2022/12/26 02:33:28;;;;;;;;;;;13.90;59.20;;;;;;5108779;28;19968;-63
2022/12/26 02:39:01;;;;;;;;;;;13.90;59.20;;;;;;5089842;28;19956;-63
2022/12/26 03:13:15;;;;;;;;;;;13.90;59.40;;;;;;5108575;28;19923;-71
2022/12/26 03:17:18;;;;;;;;;;;13.90;59.40;;;;;;5108287;28;20286;-63
2022/12/26 03:18:17;;;;;;;;;;;13.90;59.40;;;;;;5109645;28;19926;-63
2022/12/26 03:20:43;;;;;;;;;;;13.90;59.40;;;;;;5108875;28;19945;-63
2022/12/26 03:23:10;;;;;;;;;;;13.90;59.40;;;;;;5108425;28;19920;-71
2022/12/26 03:28:42;;;;;;;;;;;13.90;59.40;;;;;;5108341;28;19927;-63
2022/12/26 03:31:09;;;;;;;;;;;13.90;59.30;;;;;;5108353;28;19920;-63
2022/12/26 03:39:12;;;;;;;;;;;13.90;59.40;;;;;;5089853;28;19912;-64
2022/12/26 04:44:16;;;;;;;;;;;13.80;59.50;;;;;;5173862;27;19923;-71
2022/12/26 04:46:31;;;;;;;;;;;13.80;59.50;;;;;;5174291;27;19918;-64
2022/12/26 04:51:44;;;;;;;;;;;13.80;59.60;;;;;;5173813;27;19918;-63
2022/12/26 04:54:09;;;;;;;;;;;13.90;59.60;;;;;;5174229;27;19926;-64
2022/12/26 04:56:35;;;;;;;;;;;13.80;59.60;;;;;;5192592;27;19918;-71
2022/12/26 04:59:00;;;;;;;;;;;13.90;59.60;;;;;;5192704;27;19918;-71
2022/12/26 05:09:47;;;;;;;;;;;13.90;59.70;;;;;;5173782;27;19989;-63
2022/12/26 05:12:12;;;;;;;;;;;13.90;59.70;;;;;;5173578;27;20434;-64
2022/12/26 05:14:38;;;;;;;;;;;13.80;59.60;;;;;;5185659;27;19923;-71
2022/12/26 05:28:43;;;;;;;;;;;13.80;59.60;;;;;;5152614;27;20335;-63
2022/12/26 05:30:57;;;;;;;;;;;13.80;59.60;;;;;;5152227;27;19944;-72
2022/12/26 05:36:09;;;;;;;;;;;13.90;59.70;;;;;;5138545;27;19945;-64
2022/12/26 05:38:35;;;;;;;;;;;13.90;59.80;;;;;;5138441;27;19926;-64
2022/12/26 05:41:01;;;;;;;;;;;13.80;59.70;;;;;;5138250;27;19971;-71
2022/12/26 05:43:26;;;;;;;;;;;13.90;59.70;;;;;;5138426;27;19931;-64
2022/12/26 05:45:52;;;;;;;;;;;13.80;59.70;;;;;;5156787;27;20370;-65
2022/12/26 05:48:17;;;;;;;;;;;13.80;59.70;;;;;;5138486;27;19919;-64
2022/12/26 05:50:43;;;;;;;;;;;13.80;59.70;;;;;;5138463;27;19923;-64
2022/12/26 05:53:08;;;;;;;;;;;13.80;59.80;;;;;;5138476;27;20287;-64
2022/12/26 05:55:34;;;;;;;;;;;13.80;59.80;;;;;;5138130;27;20286;-64
2022/12/26 05:58:00;;;;;;;;;;;13.80;59.80;;;;;;5156546;27;19933;-63
2022/12/26 06:00:25;;;;;;;;;;;13.80;59.80;;;;;;5137978;27;19919;-63
2022/12/26 06:02:51;;;;;;;;;;;13.80;59.80;;;;;;5137957;27;19923;-71
2022/12/26 06:05:16;;;;;;;;;;;13.80;59.70;;;;;;5156513;27;19926;-64
2022/12/26 06:07:42;;;;;;;;;;;13.80;59.70;;;;;;5137850;27;19968;-63
2022/12/26 06:10:08;;;;;;;;;;;13.80;59.70;;;;;;5137810;27;19919;-72
2022/12/26 06:12:33;;;;;;;;;;;13.80;59.80;;;;;;5137730;27;19919;-71
2022/12/26 06:14:59;;;;;;;;;;;13.80;59.80;;;;;;5136989;27;19929;-72
2022/12/26 06:17:24;;;;;;;;;;;13.80;59.80;;;;;;5137606;27;19926;-72
2022/12/26 06:19:50;;;;;;;;;;;13.80;59.80;;;;;;5156226;27;20271;-63
2022/12/26 06:22:15;;;;;;;;;;;13.80;59.80;;;;;;5155081;27;19946;-71
2022/12/26 06:24:41;;;;;;;;;;;13.80;59.80;;;;;;5155993;27;20380;-72
2022/12/26 06:27:06;;;;;;;;;;;13.80;59.80;;;;;;5156101;27;20063;-63
2022/12/26 06:29:32;;;;;;;;;;;13.80;59.80;;;;;;5137596;27;19918;-64
2022/12/26 06:31:57;;;;;;;;;;;13.80;59.80;;;;;;5137350;27;19919;-71
2022/12/26 06:34:23;;;;;;;;;;;13.80;59.80;;;;;;5137166;27;19919;-64
2022/12/26 06:36:48;;;;;;;;;;;13.80;59.80;;;;;;5155874;27;19971;-64
2022/12/26 06:39:14;;;;;;;;;;;13.80;59.80;;;;;;5137509;27;19919;-64
2022/12/26 06:41:39;;;;;;;;;;;13.80;59.80;;;;;;5155748;27;19926;-72
2022/12/26 06:44:05;;;;;;;;;;;13.80;59.80;;;;;;5137436;27;19964;-64
2022/12/26 06:46:31;;;;;;;;;;;13.80;59.90;;;;;;5136397;27;20323;-72
2022/12/26 06:48:56;;;;;;;;;;;13.80;59.80;;;;;;5155541;27;20378;-70
2022/12/26 06:51:23;;;;;;;;;;;13.80;59.80;;;;;;5137372;27;19922;-64
2022/12/26 06:53:49;;;;;;;;;;;13.80;59.90;;;;;;5136928;27;19930;-71
2022/12/26 06:56:17;;;;;;;;;;;13.80;59.80;;;;;;5155632;27;19926;-64
2022/12/26 06:58:43;;;;;;;;;;;13.80;59.90;;;;;;5137231;27;20460;-64
2022/12/26 07:01:13;;;;;;;;;;;13.80;59.90;;;;;;5155412;27;19930;-64
2022/12/26 07:03:39;;;;;;;;;;;13.80;60.50;;;;;;5136680;27;19934;-64
2022/12/26 07:06:05;;;;;;;;;;;13.80;59.90;;;;;;5136974;27;19919;-64
2022/12/26 07:08:32;;;;;;;;;;;13.80;59.90;;;;;;5155209;27;19966;-64
2022/12/26 07:10:57;;;;;;;;;;;13.80;59.90;;;;;;5136596;27;19923;-63
2022/12/26 07:13:23;;;;;;;;;;;13.80;59.90;;;;;;5136570;27;19928;-64
2022/12/26 07:15:48;;;;;;;;;;;13.80;59.90;;;;;;5136583;27;19930;-71
2022/12/26 07:18:14;;;;;;;;;;;13.80;59.90;;;;;;5135681;27;19926;-64
2022/12/26 07:20:39;;;;;;;;;;;13.80;59.90;;;;;;5136140;27;20007;-64
2022/12/26 07:23:05;;;;;;;;;;;13.80;59.90;;;;;;5135903;27;19924;-64
2022/12/26 07:25:31;;;;;;;;;;;13.80;59.90;;;;;;5136270;27;19923;-72
2022/12/26 07:27:57;;;;;;;;;;;13.80;59.90;;;;;;5154842;27;20405;-64
2022/12/26 07:30:22;;;;;;;;;;;13.80;59.90;;;;;;5136453;27;19921;-64
2022/12/26 07:32:48;;;;;;;;;;;13.80;59.90;;;;;;5154674;27;19919;-72
2022/12/26 07:35:13;;;;;;;;;;;13.80;59.90;;;;;;5154242;27;19924;-64
2022/12/26 07:37:39;;;;;;;;;;;13.80;60.00;;;;;;5135992;27;19959;-72
2022/12/26 07:40:04;;;;;;;;;;;13.80;59.90;;;;;;5136227;27;19919;-64
2022/12/26 07:42:30;;;;;;;;;;;13.80;60.00;;;;;;5154654;27;19937;-63
2022/12/26 07:44:55;;;;;;;;;;;13.70;59.90;;;;;;5136227;27;20324;-64
2022/12/26 07:47:21;;;;;;;;;;;13.70;59.90;;;;;;5135529;27;20293;-64
2022/12/26 07:49:47;;;;;;;;;;;13.70;59.90;;;;;;5135706;27;19919;-64
2022/12/26 07:52:12;;;;;;;;;;;13.70;59.90;;;;;;5135761;27;19926;-63
2022/12/26 07:54:38;;;;;;;;;;;13.70;59.90;;;;;;5154241;27;19919;-72
2022/12/26 07:57:03;;;;;;;;;;;13.80;60.00;;;;;;5135386;27;19919;-71
2022/12/26 07:59:29;;;;;;;;;;;13.70;59.90;;;;;;5154465;27;20051;-64
2022/12/26 08:01:56;;;;;;;;;;;13.70;59.90;;;;;;5154081;27;20426;-64
2022/12/26 08:04:22;;;;;;;;;;;13.70;59.90;;;;;;5135566;27;19975;-64
2022/12/26 08:06:47;;;;;;;;;;;13.70;60.00;;;;;;5153747;27;19985;-64
2022/12/26 08:09:15;;;;;;;;;;;13.70;60.00;;;;;;5135804;27;19919;-64
2022/12/26 08:11:41;;;;;;;;;;;13.70;60.00;;;;;;5135452;27;19998;-64
2022/12/26 08:14:09;;;;;;;;;;;13.80;60.00;;;;;;5135760;27;20047;-64
2022/12/26 08:16:34;;;;;;;;;;;13.70;60.00;;;;;;5153793;27;19926;-72
2022/12/26 08:19:01;;;;;;;;;;;13.70;60.00;;;;;;5153978;27;20310;-67
2022/12/26 08:21:27;;;;;;;;;;;13.80;60.10;;;;;;5154338;27;19919;-64
2022/12/26 08:23:52;;;;;;;;;;;13.70;60.00;;;;;;5134995;27;20263;-64
2022/12/26 08:26:21;;;;;;;;;;;13.70;60.00;;;;;;5135125;27;19919;-64
2022/12/26 08:28:47;;;;;;;;;;;13.70;60.00;;;;;;5135476;27;19926;-63
2022/12/26 08:31:12;;;;;;;;;;;13.70;60.70;;;;;;5135371;27;20293;-64
2022/12/26 08:33:38;;;;;;;;;;;13.70;60.00;;;;;;5135255;27;19980;-64
2022/12/26 08:36:05;;;;;;;;;;;13.70;60.00;;;;;;5153484;27;19922;-64
2022/12/26 08:38:30;;;;;;;;;;;13.70;60.00;;;;;;5153693;27;19926;-66
2022/12/26 08:40:56;;;;;;;;;;;13.70;60.10;;;;;;5153848;27;20382;-64
2022/12/26 08:43:23;;;;;;;;;;;13.70;60.10;;;;;;5135015;27;19923;-64
2022/12/26 08:45:57;;;;;;;;;;;13.70;60.10;;;;;;5135445;27;19951;-64
2022/12/26 08:48:23;;;;;;;;;;;13.70;60.10;;;;;;5134900;27;19926;-63
2022/12/26 08:50:53;;;;;;;;;;;13.70;60.10;;;;;;5153628;27;19927;-63
2022/12/26 08:53:19;;;;;;;;;;;13.70;60.10;;;;;;5135372;27;19919;-72
2022/12/26 08:55:44;;;;;;;;;;;13.70;60.10;;;;;;5153516;27;19942;-71
2022/12/26 08:58:10;;;;;;;;;;;13.70;60.10;;;;;;5135272;27;20374;-64
2022/12/26 09:00:35;;;;;;;;;;;13.80;60.20;;;;;;5153373;27;19919;-64
2022/12/26 09:03:01;;;;;;;;;;;13.70;60.10;;;;;;5134904;27;20495;-71
2022/12/26 09:05:26;;;;;;;;;;;13.80;60.20;;;;;;5134931;27;19998;-71
2022/12/26 09:07:52;;;;;;;;;;;13.70;60.10;;;;;;5134580;27;19926;-64
2022/12/26 09:10:17;;;;;;;;;;;13.70;60.10;;;;;;5156745;27;19919;-72
2022/12/26 09:12:43;;;;;;;;;;;13.70;60.10;;;;;;5139168;27;19919;-64
2022/12/26 09:15:08;;;;;;;;;;;13.80;60.20;;;;;;5157295;27;20289;-64
2022/12/26 09:17:34;;;;;;;;;;;13.80;60.20;;;;;;5157425;27;20398;-72
2022/12/26 09:19:59;;;;;;;;;;;13.70;60.10;;;;;;5157313;27;19931;-64
2022/12/26 09:22:56;;;;;;;;;;;13.80;60.20;;;;;;5157024;27;19929;-64
2022/12/26 09:25:10;;;;;;;;;;;13.70;60.10;;;;;;5138797;27;19923;-72
2022/12/26 09:27:36;;;;;;;;;;;13.70;60.20;;;;;;5139016;27;19919;-64
2022/12/26 09:30:02;;;;;;;;;;;13.80;60.20;;;;;;5157104;27;20387;-64
2022/12/26 09:32:31;;;;;;;;;;;13.70;60.20;;;;;;5157108;27;19919;-64
2022/12/26 09:34:56;;;;;;;;;;;13.80;60.30;;;;;;5138753;27;20397;-72
2022/12/26 09:37:22;;;;;;;;;;;13.70;60.20;;;;;;5138403;27;19962;-64
2022/12/26 09:39:47;;;;;;;;;;;13.80;60.30;;;;;;5138297;27;19967;-63
2022/12/26 09:42:33;;;;;;;;;;;13.70;60.20;;;;;;5138278;27;19926;-64
2022/12/26 09:45:03;;;;;;;;;;;13.80;60.30;;;;;;5138241;27;19930;-64
2022/12/26 09:58:12;;;;;;;;;;;13.80;60.40;;;;;;5127495;27;1864551;-63
2022/12/26 10:00:42;;;;;;;;;;;13.80;60.40;;;;;;5174451;27;19918;-72
2022/12/26 10:03:09;;;;;;;;;;;13.80;60.50;;;;;;5174288;27;19919;-64
2022/12/26 10:05:38;;;;;;;;;;;13.80;60.40;;;;;;5193142;27;20274;-64
2022/12/26 10:08:19;;;;;;;;;;;13.80;60.50;;;;;;5159736;27;19919;-63
2022/12/26 10:10:50;;;;;;;;;;;13.80;60.50;;;;;;5171825;27;19926;-70
2022/12/26 10:13:20;;;;;;;;;;;13.80;60.50;;;;;;5152779;27;20315;-72
2022/12/26 10:15:49;;;;;;;;;;;13.80;60.60;;;;;;5153144;27;19926;-72
2022/12/26 10:21:16;;;;;;;;;;;13.80;60.50;;;;;;5110296;27;19918;-63
2022/12/26 10:23:44;;;;;;;;;;;13.80;60.50;;;;;;5109077;28;19920;-72
2022/12/26 10:26:13;;;;;;;;;;;13.80;60.50;;;;;;5109067;28;20474;-64
2022/12/26 10:28:57;;;;;;;;;;;13.80;60.50;;;;;;5109185;28;19969;-71
2022/12/26 10:31:29;;;;;;;;;;;13.80;60.40;;;;;;5108807;28;19966;-73
2022/12/26 10:34:01;;;;;;;;;;;13.80;60.40;;;;;;5109097;28;20284;-72
2022/12/26 10:36:37;;;;;;;;;;;13.80;60.30;;;;;;5109939;28;19986;-72
2022/12/26 10:39:04;;;;;;;;;;;13.80;60.20;;;;;;5108871;28;19924;-64
2022/12/26 10:41:33;;;;;;;;;;;13.80;60.20;;;;;;5108563;28;19973;-64
2022/12/26 10:43:58;;;;;;;;;;;13.80;60.10;;;;;;5108900;28;19928;-72
2022/12/26 10:46:31;;;;;;;;;;;13.80;60.10;;;;;;5108356;28;19920;-64
2022/12/26 10:48:57;;;;;;;;;;;13.80;60.00;;;;;;5109735;28;19920;-72
2022/12/26 10:51:23;;;;;;;;;;;13.80;60.00;;;;;;5108633;28;20402;-64
2022/12/26 10:53:50;;;;;;;;;;;13.80;60.00;;;;;;5108363;28;20067;-71
2022/12/26 10:56:16;;;;;;;;;;;13.80;59.90;;;;;;5108550;28;19920;-63
2022/12/26 10:58:42;;;;;;;;;;;13.80;59.90;;;;;;5108164;28;19924;-72
2022/12/26 11:01:27;;;;;;;;;;;13.80;59.80;;;;;;5109389;28;19924;-63
2022/12/26 11:03:54;;;;;;;;;;;13.80;59.80;;;;;;5108315;28;20389;-72
2022/12/26 11:06:23;;;;;;;;;;;13.80;59.80;;;;;;5108146;28;19967;-72
2022/12/26 11:08:49;;;;;;;;;;;13.80;59.80;;;;;;5108017;28;19923;-65
2022/12/26 11:14:00;;;;;;;;;;;13.80;59.80;;;;;;5110144;27;19919;-64
2022/12/26 11:16:28;;;;;;;;;;;13.80;59.70;;;;;;5108831;28;20376;-64
2022/12/26 11:18:54;;;;;;;;;;;13.80;59.60;;;;;;5108810;28;19963;-64
2022/12/26 11:21:22;;;;;;;;;;;13.80;59.60;;;;;;5109246;28;19952;-63
2022/12/26 11:23:51;;;;;;;;;;;13.80;59.70;;;;;;5110019;28;19951;-72
2022/12/26 11:26:31;;;;;;;;;;;13.80;59.60;;;;;;5108984;28;19920;-72
2022/12/26 11:31:55;;;;;;;;;;;13.80;59.50;;;;;;5110373;27;19938;-64
2022/12/26 11:34:44;;;;;;;;;;;13.70;59.40;;;;;;5108894;28;19920;-64
2022/12/26 11:37:27;;;;;;;;;;;13.80;59.40;;;;;;5109075;28;19973;-64
2022/12/26 11:39:52;;;;;;;;;;;13.80;59.40;;;;;;5108765;28;20032;-72
2022/12/26 11:42:20;;;;;;;;;;;13.70;59.30;;;;;;5109154;28;20019;-64
2022/12/26 11:44:48;;;;;;;;;;;13.80;59.40;;;;;;5108719;28;19920;-64
2022/12/26 11:47:15;;;;;;;;;;;13.70;59.30;;;;;;5108665;28;19958;-64
2022/12/26 11:52:44;;;;;;;;;;;13.70;59.30;;;;;;5090012;28;19934;-72
2022/12/26 11:55:27;;;;;;;;;;;13.80;59.30;;;;;;5088297;28;19920;-72
2022/12/26 12:03:31;;;;;;;;;;;13.70;59.10;;;;;;5110287;27;19919;-72
2022/12/26 12:06:06;;;;;;;;;;;13.70;59.10;;;;;;5109222;28;19927;-72
2022/12/26 12:14:19;;;;;;;;;;;13.70;59.00;;;;;;5089866;28;19913;-72
2022/12/26 12:16:51;;;;;;;;;;;13.70;58.80;;;;;;5088209;28;19924;-64
2022/12/26 12:22:17;;;;;;;;;;;13.80;58.90;;;;;;5090166;28;19938;-64
2022/12/26 12:27:42;;;;;;;;;;;13.80;58.80;;;;;;5110149;27;19912;-64
2022/12/26 12:33:16;;;;;;;;;;;13.70;58.70;;;;;;5129567;27;1867414;-72
2022/12/26 12:35:51;;;;;;;;;;;13.70;58.70;;;;;;5174222;27;19926;-64
2022/12/26 12:49:04;;;;;;;;;;;13.80;58.50;;;;;;5129239;27;1874162;-64
2022/12/26 12:51:36;;;;;;;;;;;13.70;58.40;;;;;;5174265;27;19962;-66
2022/12/26 12:54:22;;;;;;;;;;;13.70;58.30;;;;;;5174695;27;20301;-74
2022/12/26 12:57:07;;;;;;;;;;;13.70;58.30;;;;;;5174208;27;20082;-66
2022/12/26 12:59:42;;;;;;;;;;;13.70;58.30;;;;;;5174208;27;19923;-66
2022/12/26 13:02:27;;;;;;;;;;;13.70;58.30;;;;;;5192985;27;20317;-66
2022/12/26 13:04:58;;;;;;;;;;;13.70;58.30;;;;;;5173963;27;19918;-66
2022/12/26 13:07:26;;;;;;;;;;;13.70;58.20;;;;;;5174147;27;19973;-75
2022/12/26 13:09:54;;;;;;;;;;;13.70;58.10;;;;;;5192900;27;19922;-74
2022/12/26 13:12:21;;;;;;;;;;;13.70;58.20;;;;;;5192798;27;19918;-74
2022/12/26 13:14:51;;;;;;;;;;;13.70;58.10;;;;;;5174257;27;19961;-66
2022/12/26 13:17:19;;;;;;;;;;;13.70;58.10;;;;;;5173950;27;20278;-66
2022/12/26 13:19:53;;;;;;;;;;;13.70;58.10;;;;;;5173602;27;19925;-66
2022/12/26 13:22:23;;;;;;;;;;;14.00;57.90;;;;;;5174136;27;20366;-66
2022/12/26 13:24:52;;;;;;;;;;;14.40;57.10;;;;;;5173965;27;19954;-75
2022/12/26 13:27:24;;;;;;;;;;;14.80;56.60;;;;;;5173576;27;20407;-66
2022/12/26 13:29:51;;;;;;;;;;;15.40;55.60;;;;;;5173465;27;19918;-75
2022/12/26 13:35:03;;;;;;;;;;;16.80;52.30;;;;;;5126785;27;1886166;-64
2022/12/26 13:37:48;;;;;;;;;;;17.50;50.60;;;;;;5174058;27;20369;-64
2022/12/26 13:40:16;;;;;;;;;;;18.30;49.10;;;;;;5174362;27;19971;-72
2022/12/26 13:53:36;;;;;;;;;;;21.90;41.80;;;;;;5127385;27;1869032;-64
2022/12/26 13:59:17;;;;;;;;;;;22.70;40.30;;;;;;5089788;28;19919;-64
2022/12/26 14:02:03;;;;;;;;;;;23.00;39.80;;;;;;5088647;28;20336;-64
2022/12/26 14:07:31;;;;;;;;;;;23.20;39.30;;;;;;5089044;28;19934;-64
2022/12/26 14:15:23;;;;;;;;;;;22.90;39.40;;;;;;5090092;28;19919;-65
2022/12/26 14:23:36;;;;;;;;;;;22.40;40.10;;;;;;5089910;28;19934;-64
2022/12/26 14:29:18;;;;;;;;;;;22.00;40.30;;;;;;5089509;28;19934;-73
2022/12/26 14:34:46;;;;;;;;;;;21.50;41.50;;;;;;5129474;27;1867830;-65
2022/12/26 14:43:10;;;;;;;;;;;20.70;42.10;;;;;;5110390;27;19936;-64
2022/12/26 14:53:43;;;;;;;;;;;19.90;43.50;;;;;;5127644;27;1866482;-64
2022/12/26 14:58:47;;;;;;;;;;;19.60;43.90;;;;;;5127365;27;1868179;-64
2022/12/26 15:12:25;;;;;;;;;;;18.70;45.20;;;;;;5110295;27;19929;-64
2022/12/26 15:15:09;;;;;;;;;;;18.60;45.30;;;;;;5108546;28;19920;-70
2022/12/26 15:20:35;;;;;;;;;;;18.40;45.70;;;;;;5089915;28;20400;-71
2022/12/26 15:23:20;;;;;;;;;;;18.20;45.80;;;;;;5088386;28;19920;-73
2022/12/26 15:26:06;;;;;;;;;;;18.10;46.10;;;;;;5105505;28;19924;-64
2022/12/26 15:31:23;;;;;;;;;;;17.90;46.50;;;;;;5127500;27;1865760;-72
2022/12/26 15:34:09;;;;;;;;;;;17.80;46.80;;;;;;5174536;27;20297;-64
2022/12/26 15:39:34;;;;;;;;;;;17.60;47.20;;;;;;5110315;27;20401;-64
2022/12/26 15:42:20;;;;;;;;;;;17.50;47.30;;;;;;5108717;28;19924;-65
2022/12/26 15:47:45;;;;;;;;;;;17.30;47.60;;;;;;5089895;28;19912;-73
2022/12/26 15:53:12;;;;;;;;;;;17.20;48.00;;;;;;5172251;27;20006;-64
2022/12/26 15:55:46;;;;;;;;;;;17.00;48.20;;;;;;5153622;27;19919;-72
2022/12/26 16:00:57;;;;;;;;;;;16.80;48.60;;;;;;5131521;27;1866292;-73
2022/12/26 16:03:34;;;;;;;;;;;16.70;48.80;;;;;;5193122;27;19962;-73
2022/12/26 16:11:24;;;;;;;;;;;16.50;49.20;;;;;;5089902;28;19919;-72
2022/12/26 16:13:52;;;;;;;;;;;16.40;49.30;;;;;;5088476;28;19921;-64
2022/12/26 16:16:34;;;;;;;;;;;16.30;49.50;;;;;;5089852;28;20333;-64
2022/12/26 16:19:20;;;;;;;;;;;16.20;49.60;;;;;;5088832;28;20264;-72
2022/12/26 16:24:38;;;;;;;;;;;16.00;49.90;;;;;;5088486;28;19924;-73
2022/12/26 16:27:05;;;;;;;;;;;16.00;50.00;;;;;;5088679;28;19920;-64
2022/12/26 16:29:31;;;;;;;;;;;16.00;50.10;;;;;;5088283;28;20015;-64
2022/12/26 16:32:01;;;;;;;;;;;15.90;50.20;;;;;;5089734;28;20015;-72
2022/12/26 16:34:27;;;;;;;;;;;15.90;50.30;;;;;;5088263;28;19920;-64
2022/12/26 16:36:53;;;;;;;;;;;15.80;50.30;;;;;;5088442;28;20326;-64
2022/12/26 16:39:20;;;;;;;;;;;15.80;50.40;;;;;;5088404;28;19920;-64
2022/12/26 16:42:03;;;;;;;;;;;15.70;50.50;;;;;;5088414;28;20303;-73
2022/12/26 16:44:33;;;;;;;;;;;15.60;50.50;;;;;;5088039;28;19956;-73
2022/12/26 16:47:00;;;;;;;;;;;15.60;50.60;;;;;;5089243;28;20356;-64
2022/12/26 16:49:26;;;;;;;;;;;15.60;50.70;;;;;;5089113;28;19967;-73
2022/12/26 16:51:53;;;;;;;;;;;15.50;50.70;;;;;;5088193;28;19931;-64
2022/12/26 16:57:01;;;;;;;;;;;15.50;50.80;;;;;;5110324;27;19913;-72
2022/12/26 16:59:30;;;;;;;;;;;15.40;50.80;;;;;;5108887;28;19920;-72
2022/12/26 17:01:56;;;;;;;;;;;15.40;50.80;;;;;;5108935;28;19923;-64
2022/12/26 17:04:23;;;;;;;;;;;15.40;50.90;;;;;;5108797;28;19999;-64
2022/12/26 17:06:54;;;;;;;;;;;15.40;51.00;;;;;;5109177;28;19955;-73
2022/12/26 17:09:21;;;;;;;;;;;15.30;51.00;;;;;;5109081;28;19920;-64
2022/12/26 17:14:37;;;;;;;;;;;15.30;51.00;;;;;;5089871;28;19913;-73
2022/12/26 17:17:04;;;;;;;;;;;15.20;51.00;;;;;;5088781;28;19973;-73
2022/12/26 17:19:31;;;;;;;;;;;15.20;51.10;;;;;;5088566;28;19928;-64
2022/12/26 17:22:16;;;;;;;;;;;15.20;51.10;;;;;;5088868;28;20253;-64
2022/12/26 17:24:43;;;;;;;;;;;15.10;51.10;;;;;;5088564;28;19920;-73
2022/12/26 17:27:14;;;;;;;;;;;15.10;51.20;;;;;;5088448;28;19927;-64
2022/12/26 17:29:59;;;;;;;;;;;15.00;51.20;;;;;;5088598;28;19959;-73
2022/12/26 17:32:29;;;;;;;;;;;15.00;51.30;;;;;;5088105;28;19925;-64
2022/12/26 17:34:58;;;;;;;;;;;15.00;51.30;;;;;;5088203;28;19920;-73
2022/12/26 17:37:24;;;;;;;;;;;15.00;51.40;;;;;;5088606;28;20007;-64
2022/12/26 17:39:51;;;;;;;;;;;15.00;51.40;;;;;;5088451;28;20015;-64
2022/12/26 17:42:16;;;;;;;;;;;14.90;51.40;;;;;;5089380;28;20426;-73
2022/12/26 17:44:43;;;;;;;;;;;14.90;51.40;;;;;;5088380;28;19920;-64
2022/12/26 17:47:14;;;;;;;;;;;14.90;51.40;;;;;;5088399;28;20292;-64
2022/12/26 17:49:40;;;;;;;;;;;14.90;51.40;;;;;;5088019;28;19920;-64
2022/12/26 17:52:05;;;;;;;;;;;14.90;51.50;;;;;;5089119;28;19927;-72
2022/12/26 17:54:31;;;;;;;;;;;14.90;51.50;;;;;;5089245;28;19920;-72
2022/12/26 17:56:56;;;;;;;;;;;14.80;51.50;;;;;;5104654;28;19924;-64
2022/12/26 17:59:22;;;;;;;;;;;14.80;51.50;;;;;;5087842;28;19920;-64
2022/12/26 18:01:47;;;;;;;;;;;14.80;51.50;;;;;;5088044;28;19964;-73
2022/12/26 18:04:13;;;;;;;;;;;14.80;51.60;;;;;;5088474;28;20015;-64
2022/12/26 18:06:39;;;;;;;;;;;14.80;51.50;;;;;;5088774;28;20011;-64
2022/12/26 18:09:05;;;;;;;;;;;14.80;51.60;;;;;;5087866;28;19920;-64
2022/12/26 18:11:30;;;;;;;;;;;14.80;51.60;;;;;;5086810;28;20559;-64
2022/12/26 18:13:56;;;;;;;;;;;15.30;51.60;;;;;;5087167;28;19931;-72
2022/12/26 18:16:26;;;;;;;;;;;15.60;50.80;;;;;;5088658;28;19963;-72
2022/12/26 18:18:52;;;;;;;;;;;16.10;50.00;;;;;;5087809;28;19920;-73
2022/12/26 18:21:17;;;;;;;;;;;16.60;49.00;;;;;;5088679;28;20322;-73
2022/12/26 18:23:43;;;;;;;;;;;17.20;47.90;;;;;;5086732;28;19920;-64
2022/12/26 18:26:26;;;;;;;;;;;17.90;46.50;;;;;;5074576;28;20311;-73
2022/12/26 18:28:52;;;;;;;;;;;18.60;45.30;;;;;;5073802;28;19920;-64
2022/12/26 18:31:18;;;;;;;;;;;19.40;43.80;;;;;;5074950;28;19931;-73
2022/12/26 18:33:43;;;;;;;;;;;20.10;42.40;;;;;;5073680;28;19925;-65
2022/12/26 18:36:10;;;;;;;;;;;20.80;42.20;;;;;;5073972;28;19943;-64
2022/12/26 18:38:36;;;;;;;;;;;21.40;40.20;;;;;;5073872;28;19920;-64
2022/12/26 18:41:01;;;;;;;;;;;22.00;39.20;;;;;;5073558;28;19927;-64
2022/12/26 18:43:27;;;;;;;;;;;22.40;38.50;;;;;;5073525;28;19928;-64
2022/12/26 18:45:52;;;;;;;;;;;22.80;37.70;;;;;;5073454;28;19920;-73
2022/12/26 18:48:19;;;;;;;;;;;23.20;37.20;;;;;;5073382;28;19920;-64
2022/12/26 18:50:44;;;;;;;;;;;23.50;37.50;;;;;;5073673;28;20035;-64
2022/12/26 18:53:10;;;;;;;;;;;23.60;36.60;;;;;;5074567;28;20011;-64
2022/12/26 18:55:36;;;;;;;;;;;23.60;36.50;;;;;;5074629;28;19971;-64
2022/12/26 18:58:01;;;;;;;;;;;23.60;36.40;;;;;;5073463;28;20390;-65
2022/12/26 19:00:27;;;;;;;;;;;23.50;36.60;;;;;;5073538;28;20323;-64
2022/12/26 19:02:54;;;;;;;;;;;23.40;36.50;;;;;;5074411;28;20380;-64
2022/12/26 19:05:21;;;;;;;;;;;23.30;36.80;;;;;;5073462;28;19928;-64
2022/12/26 19:07:48;;;;;;;;;;;23.10;37.00;;;;;;5073041;28;20388;-64
2022/12/26 19:10:15;;;;;;;;;;;23.00;37.30;;;;;;5074262;28;19921;-64
2022/12/26 19:12:41;;;;;;;;;;;22.80;37.40;;;;;;5072525;28;20004;-64
2022/12/26 19:15:07;;;;;;;;;;;22.50;37.70;;;;;;5072865;28;19924;-64